Time;durP1;ratioP1;P1;durP2;ratioP2;P2;SDS_P1;SDS_P2;PMS_P1;PMS_P2;Temp;Humidity;BMP_temperature;BMP_pressure;BME280_temperature;BME280_humidity;BME280_pressure;Samples;Min_cycle;Max_cycle;Signal;HPM_P1;HPM_P2
2024/03/11 00:02:08;;;;;;;4.30;3.90;;;22.00;58.60;;;;;;5074586;28;20487;-81
2024/03/11 00:04:35;;;;;;;4.60;4.20;;;22.00;58.60;;;;;;5074578;28;20439;-81
2024/03/11 00:07:04;;;;;;;4.53;4.13;;;22.00;58.60;;;;;;5074313;28;20950;-81
2024/03/11 00:09:32;;;;;;;3.80;3.50;;;22.00;58.60;;;;;;5073857;28;20535;-81
2024/03/11 00:12:00;;;;;;;5.53;5.03;;;22.00;58.60;;;;;;5074612;28;20790;-81
2024/03/11 00:14:28;;;;;;;4.30;3.97;;;22.00;58.60;;;;;;5074530;28;20489;-81
2024/03/11 00:16:58;;;;;;;4.73;4.33;;;22.00;58.60;;;;;;5075002;28;20436;-80
2024/03/11 00:19:25;;;;;;;4.37;3.97;;;22.00;58.60;;;;;;5074467;28;20445;-81
2024/03/11 00:21:54;;;;;;;4.43;3.67;;;22.00;58.60;;;;;;5074721;28;20480;-81
2024/03/11 00:24:21;;;;;;;4.47;3.60;;;22.00;58.60;;;;;;5074326;28;20566;-80
2024/03/11 00:26:49;;;;;;;4.17;3.77;;;22.00;58.60;;;;;;5074390;28;20459;-87
2024/03/11 00:29:16;;;;;;;4.43;3.83;;;22.00;58.60;;;;;;5074481;28;20915;-80
2024/03/11 00:31:43;;;;;;;4.50;4.10;;;22.00;58.60;;;;;;5074387;28;20432;-80
2024/03/11 00:34:11;;;;;;;4.27;3.87;;;22.00;58.60;;;;;;5074320;28;20433;-80
2024/03/11 00:36:38;;;;;;;4.20;3.80;;;22.00;58.60;;;;;;5074344;28;20432;-81
2024/03/11 00:39:05;;;;;;;4.20;3.80;;;22.00;58.60;;;;;;5073889;28;20521;-81
2024/03/11 00:41:33;;;;;;;4.47;4.07;;;22.00;58.60;;;;;;5074123;28;20515;-80
2024/03/11 00:43:59;;;;;;;5.00;4.53;;;22.00;58.60;;;;;;5074136;28;20464;-80
2024/03/11 00:46:26;;;;;;;4.67;4.27;;;22.00;58.60;;;;;;5074060;28;20448;-81
2024/03/11 00:48:54;;;;;;;4.30;3.90;;;22.00;58.60;;;;;;5074068;28;20861;-81
2024/03/11 00:51:22;;;;;;;3.63;3.33;;;22.00;58.60;;;;;;5083383;28;20432;-80
2024/03/11 00:53:49;;;;;;;4.83;4.40;;;22.00;58.60;;;;;;5085634;28;20812;-80
2024/03/11 00:56:16;;;;;;;4.30;3.90;;;22.00;58.60;;;;;;5075756;28;20460;-81
2024/03/11 00:58:43;;;;;;;4.13;3.73;;;22.00;58.60;;;;;;5073818;28;20449;-80
2024/03/11 01:01:11;;;;;;;4.33;3.93;;;22.10;58.70;;;;;;5073888;28;20488;-80
2024/03/11 01:03:38;;;;;;;4.87;4.37;;;22.00;58.60;;;;;;5073825;28;20432;-81
2024/03/11 01:06:05;;;;;;;4.10;3.80;;;22.00;58.60;;;;;;5074023;28;20490;-81
2024/03/11 01:08:33;;;;;;;4.90;4.40;;;21.90;58.60;;;;;;5073512;28;20539;-80
2024/03/11 01:11:00;;;;;;;3.80;3.50;;;21.90;58.60;;;;;;5073457;28;20445;-81
2024/03/11 01:13:27;;;;;;;4.40;4.00;;;21.90;58.60;;;;;;5073654;28;20794;-86
2024/03/11 01:15:55;;;;;;;4.50;4.10;;;21.90;58.50;;;;;;5073592;28;20440;-88
2024/03/11 01:18:23;;;;;;;4.73;4.30;;;21.90;58.60;;;;;;5073435;28;20450;-80
2024/03/11 01:20:51;;;;;;;4.97;4.47;;;21.90;58.50;;;;;;5072953;28;20527;-80
2024/03/11 01:23:18;;;;;;;4.33;3.93;;;21.90;58.50;;;;;;5073413;28;20511;-80
2024/03/11 01:25:46;;;;;;;4.70;4.30;;;21.90;58.60;;;;;;5073426;28;20443;-80
2024/03/11 01:28:12;;;;;;;4.03;3.63;;;21.90;58.60;;;;;;5073321;28;20445;-81
2024/03/11 01:30:39;;;;;;;4.70;4.30;;;21.90;58.60;;;;;;5073652;28;20443;-80
2024/03/11 01:33:06;;;;;;;4.77;4.37;;;21.90;58.60;;;;;;5073378;28;20444;-81
2024/03/11 01:35:34;;;;;;;5.57;4.00;;;21.90;58.60;;;;;;5072956;28;20455;-81
2024/03/11 01:38:01;;;;;;;4.10;3.70;;;21.90;58.50;;;;;;5073124;28;20467;-81
2024/03/11 01:40:28;;;;;;;4.60;4.20;;;21.90;58.60;;;;;;5073218;28;20436;-80
2024/03/11 01:42:56;;;;;;;4.40;4.00;;;21.90;58.60;;;;;;5073119;28;21036;-80
2024/03/11 01:45:24;;;;;;;3.77;3.47;;;21.90;58.60;;;;;;5072877;28;20475;-80
2024/03/11 01:47:52;;;;;;;4.50;4.10;;;21.90;58.60;;;;;;5072974;28;20942;-81
2024/03/11 01:50:19;;;;;;;4.27;3.97;;;21.90;59.10;;;;;;5073211;28;20437;-80
2024/03/11 01:52:50;;;;;;;4.10;3.70;;;21.90;58.60;;;;;;5072670;28;20433;-81
2024/03/11 01:55:18;;;;;;;4.30;3.90;;;21.90;58.60;;;;;;5072903;28;20931;-81
2024/03/11 01:57:46;;;;;;;4.03;3.63;;;21.90;58.60;;;;;;5072983;28;20428;-84
2024/03/11 02:00:15;;;;;;;3.70;3.40;;;21.90;58.60;;;;;;5073059;28;20922;-81
2024/03/11 02:02:42;;;;;;;4.37;3.97;;;21.90;58.60;;;;;;5072885;28;20488;-81
2024/03/11 02:05:13;;;;;;;5.00;4.50;;;21.90;58.60;;;;;;5072864;28;20433;-80
2024/03/11 02:07:40;;;;;;;4.07;3.77;;;21.90;58.60;;;;;;5072949;28;20447;-80
2024/03/11 02:10:13;;;;;;;4.77;3.97;;;21.90;58.60;;;;;;5072739;28;20459;-80
2024/03/11 02:12:40;;;;;;;4.00;3.70;;;21.90;58.60;;;;;;5072635;28;20495;-81
2024/03/11 02:15:10;;;;;;;4.10;3.70;;;21.90;58.60;;;;;;5072798;28;20949;-81
2024/03/11 02:17:39;;;;;;;4.37;3.97;;;21.90;58.60;;;;;;5073231;28;20432;-81
2024/03/11 02:20:15;;;;;;;4.37;3.97;;;21.90;58.60;;;;;;5072856;28;20802;-81
2024/03/11 02:22:45;;;;;;;4.50;4.10;;;21.90;58.60;;;;;;5073008;28;20515;-81
2024/03/11 02:25:14;;;;;;;4.57;4.10;;;21.90;58.70;;;;;;5072736;28;20459;-80
2024/03/11 02:27:41;;;;;;;4.13;3.73;;;21.90;58.60;;;;;;5072787;28;20441;-80
2024/03/11 02:30:09;;;;;;;4.17;3.87;;;21.80;58.50;;;;;;5072771;28;20444;-80
2024/03/11 02:32:36;;;;;;;4.77;4.37;;;21.90;58.60;;;;;;5075688;28;20432;-80
2024/03/11 02:35:03;;;;;;;4.30;3.90;;;21.80;58.50;;;;;;5076450;28;20443;-80
2024/03/11 02:37:29;;;;;;;4.67;4.17;;;21.80;58.50;;;;;;5077590;28;20429;-80
2024/03/11 02:39:56;;;;;;;3.67;3.37;;;21.90;58.70;;;;;;5088141;28;20532;-81
2024/03/11 02:42:25;;;;;;;4.27;3.43;;;21.80;58.60;;;;;;5083848;28;20483;-80
2024/03/11 02:44:53;;;;;;;4.10;3.70;;;21.80;58.60;;;;;;5087699;28;20479;-80
2024/03/11 02:47:20;;;;;;;4.73;4.10;;;21.80;58.60;;;;;;5077032;28;20927;-81
2024/03/11 02:49:48;;;;;;;5.23;3.90;;;21.80;58.50;;;;;;5076558;28;20799;-80
2024/03/11 02:52:14;;;;;;;4.83;4.33;;;21.80;58.60;;;;;;5076595;28;20870;-80
2024/03/11 02:54:41;;;;;;;4.13;3.73;;;21.80;58.50;;;;;;5076222;28;20436;-80
2024/03/11 02:57:08;;;;;;;4.07;3.70;;;21.80;58.60;;;;;;5076025;28;20486;-81
2024/03/11 02:59:40;;;;;;;3.70;3.40;;;21.80;58.60;;;;;;5076624;28;20440;-81
2024/03/11 03:02:07;;;;;;;5.87;4.60;;;21.80;59.20;;;;;;5076551;28;20541;-80
2024/03/11 03:04:34;;;;;;;4.13;3.83;;;21.80;58.60;;;;;;5076293;28;20432;-81
2024/03/11 03:07:01;;;;;;;4.20;3.80;;;21.80;58.60;;;;;;5076765;28;20444;-88
2024/03/11 03:09:28;;;;;;;4.17;3.87;;;21.80;58.60;;;;;;5076699;28;20456;-87
2024/03/11 03:11:56;;;;;;;3.63;3.33;;;21.80;58.60;;;;;;5076049;28;20511;-81
2024/03/11 03:14:22;;;;;;;4.83;3.63;;;21.80;58.60;;;;;;5076069;28;20833;-88
2024/03/11 03:16:51;;;;;;;5.37;4.87;;;21.80;58.60;;;;;;5076601;28;20428;-88
2024/03/11 03:19:18;;;;;;;5.00;4.50;;;21.80;58.60;;;;;;5076047;28;20999;-85
2024/03/11 03:21:45;;;;;;;3.30;3.00;;;21.80;58.60;;;;;;5076024;28;20475;-80
2024/03/11 03:24:12;;;;;;;4.23;3.93;;;21.80;58.60;;;;;;5075811;28;20441;-88
2024/03/11 03:26:39;;;;;;;4.40;4.00;;;21.80;58.60;;;;;;5075760;28;20475;-80
2024/03/11 03:29:06;;;;;;;4.13;3.73;;;21.80;58.60;;;;;;5075676;28;20567;-80
2024/03/11 03:31:33;;;;;;;4.33;3.93;;;21.80;58.60;;;;;;5075485;28;20443;-86
2024/03/11 03:34:01;;;;;;;3.43;3.13;;;21.80;58.60;;;;;;5067090;28;20923;-81
2024/03/11 03:36:28;;;;;;;3.97;3.60;;;21.80;58.60;;;;;;5075394;28;20432;-82
2024/03/11 03:38:56;;;;;;;4.30;3.90;;;21.80;58.60;;;;;;5075356;28;20639;-82
2024/03/11 03:41:23;;;;;;;4.00;3.60;;;21.80;58.60;;;;;;5075242;28;20494;-82
2024/03/11 03:43:49;;;;;;;3.10;2.90;;;21.80;58.70;;;;;;5074904;28;20494;-82
2024/03/11 03:46:17;;;;;;;3.90;3.60;;;21.80;58.60;;;;;;5075895;28;20794;-82
2024/03/11 03:48:44;;;;;;;4.90;4.50;;;21.80;58.60;;;;;;5075001;28;20492;-80
2024/03/11 03:51:12;;;;;;;3.80;3.50;;;21.80;58.60;;;;;;5074919;28;20436;-81
2024/03/11 03:53:39;;;;;;;3.60;3.30;;;21.80;58.60;;;;;;5074662;28;20436;-81
2024/03/11 03:56:06;;;;;;;4.20;3.80;;;21.80;58.60;;;;;;5074891;28;20750;-81
2024/03/11 03:58:34;;;;;;;4.37;3.97;;;21.80;58.60;;;;;;5074913;28;20527;-81
2024/03/11 04:01:02;;;;;;;4.20;3.80;;;21.80;58.60;;;;;;5074854;28;20445;-81
2024/03/11 04:03:29;;;;;;;4.63;4.13;;;21.80;58.70;;;;;;5074679;28;20487;-81
2024/03/11 04:05:56;;;;;;;3.83;3.53;;;21.80;58.70;;;;;;5074736;28;20436;-81
2024/03/11 04:08:24;;;;;;;4.20;3.90;;;21.80;58.60;;;;;;5084775;28;20452;-82
2024/03/11 04:10:51;;;;;;;4.10;3.70;;;21.80;58.70;;;;;;5087994;28;20920;-81
2024/03/11 04:13:17;;;;;;;5.07;4.57;;;21.70;58.60;;;;;;5085456;28;20448;-81
2024/03/11 04:15:44;;;;;;;3.70;3.40;;;21.70;58.60;;;;;;5074424;28;20433;-81
2024/03/11 04:18:11;;;;;;;4.40;4.00;;;21.70;58.60;;;;;;5074465;28;20927;-81
2024/03/11 04:20:39;;;;;;;4.00;3.60;;;21.80;58.70;;;;;;5074686;28;20950;-81
2024/03/11 04:23:07;;;;;;;4.23;3.83;;;21.90;58.70;;;;;;5074106;28;20484;-81
2024/03/11 04:25:37;;;;;;;4.50;4.10;;;21.70;58.60;;;;;;5074527;28;20455;-82
2024/03/11 04:28:05;;;;;;;4.13;3.80;;;21.70;58.60;;;;;;5074251;28;20429;-81
2024/03/11 04:30:33;;;;;;;3.60;3.30;;;21.70;58.60;;;;;;5074466;28;20576;-81
2024/03/11 04:33:01;;;;;;;4.63;3.60;;;21.70;58.60;;;;;;5074202;28;20424;-81
2024/03/11 04:35:30;;;;;;;3.80;3.50;;;21.70;58.60;;;;;;5074272;28;20437;-81
2024/03/11 04:37:58;;;;;;;4.50;4.10;;;21.70;58.60;;;;;;5073909;28;20855;-82
2024/03/11 04:40:26;;;;;;;4.17;3.77;;;21.70;58.60;;;;;;5073880;28;20429;-81
2024/03/11 04:42:55;;;;;;;3.80;3.50;;;21.70;58.70;;;;;;5073865;28;20491;-84
2024/03/11 04:45:22;;;;;;;4.40;4.00;;;21.70;58.60;;;;;;5073696;28;20549;-82
2024/03/11 04:47:48;;;;;;;4.27;3.97;;;21.70;58.60;;;;;;5074060;28;20781;-81
2024/03/11 04:50:24;;;;;;;4.20;3.80;;;21.70;58.60;;;;;;5073740;28;20436;-81
2024/03/11 04:52:51;;;;;;;4.23;3.83;;;21.70;58.60;;;;;;5073636;28;20437;-81
2024/03/11 04:55:18;;;;;;;4.17;3.77;;;21.70;58.70;;;;;;5073026;28;20435;-81
2024/03/11 04:57:45;;;;;;;4.40;4.00;;;21.70;58.70;;;;;;5073633;28;20428;-81
2024/03/11 05:00:14;;;;;;;4.60;3.77;;;21.70;58.60;;;;;;5073408;28;20934;-81
2024/03/11 05:02:41;;;;;;;3.93;3.63;;;21.70;58.60;;;;;;5073296;28;20476;-82
2024/03/11 05:05:09;;;;;;;3.90;3.50;;;21.70;58.70;;;;;;5073608;28;20440;-81
2024/03/11 05:07:36;;;;;;;4.07;3.67;;;21.70;58.70;;;;;;5073856;28;20490;-81
2024/03/11 05:10:03;;;;;;;4.03;3.63;;;21.70;58.70;;;;;;5073519;28;20979;-82
2024/03/11 05:12:31;;;;;;;3.43;3.13;;;21.70;58.60;;;;;;5073161;28;20470;-81
2024/03/11 05:14:58;;;;;;;4.30;3.90;;;21.70;58.70;;;;;;5073339;28;20440;-82
2024/03/11 05:17:27;;;;;;;4.40;4.00;;;21.70;58.70;;;;;;5073567;28;20791;-82
2024/03/11 05:19:53;;;;;;;4.30;3.87;;;21.70;58.70;;;;;;5073546;28;20433;-82
2024/03/11 05:22:23;;;;;;;3.37;2.97;;;21.70;58.70;;;;;;5073201;28;20491;-82
2024/03/11 05:24:50;;;;;;;3.53;3.23;;;21.70;58.70;;;;;;5073521;28;20519;-82
2024/03/11 05:27:17;;;;;;;3.53;3.23;;;21.70;58.70;;;;;;5073317;28;20433;-81
2024/03/11 05:29:44;;;;;;;4.33;3.73;;;21.70;58.70;;;;;;5073336;28;20443;-82
2024/03/11 05:32:11;;;;;;;3.70;3.40;;;21.70;58.70;;;;;;5073039;28;20536;-86
2024/03/11 05:34:39;;;;;;;4.50;4.10;;;21.70;58.70;;;;;;5073312;28;20494;-82
2024/03/11 05:37:06;;;;;;;3.73;3.43;;;21.70;58.70;;;;;;5073198;28;20436;-81
2024/03/11 05:39:33;;;;;;;3.53;3.23;;;21.70;58.70;;;;;;5073126;28;20490;-88
2024/03/11 05:42:00;;;;;;;4.23;3.83;;;21.70;58.70;;;;;;5073229;28;20525;-81
2024/03/11 05:44:27;;;;;;;4.00;3.60;;;21.70;58.70;;;;;;5072929;28;20468;-81
2024/03/11 05:46:54;;;;;;;3.90;3.60;;;21.70;58.70;;;;;;5073390;28;20464;-82
2024/03/11 05:49:21;;;;;;;4.03;3.63;;;21.70;58.70;;;;;;5073360;28;20443;-81
2024/03/11 05:51:52;;;;;;;4.40;4.00;;;21.70;58.70;;;;;;5073209;28;20432;-81
2024/03/11 05:54:19;;;;;;;4.07;3.67;;;21.70;58.70;;;;;;5073236;28;20519;-88
2024/03/11 05:56:53;;;;;;;4.27;3.87;;;21.70;58.70;;;;;;5073151;28;20524;-80
2024/03/11 05:59:21;;;;;;;3.73;3.43;;;21.70;58.70;;;;;;5073083;28;20467;-80
2024/03/11 06:01:48;;;;;;;3.87;3.50;;;21.70;58.70;;;;;;5073173;28;20856;-80
2024/03/11 06:04:15;;;;;;;4.63;4.00;;;21.60;58.60;;;;;;5072940;28;20484;-81
2024/03/11 06:06:44;;;;;;;3.57;3.27;;;21.70;58.70;;;;;;5074935;28;20524;-82
2024/03/11 06:09:14;;;;;;;4.17;3.70;;;21.70;58.70;;;;;;5076996;28;20849;-86
2024/03/11 06:11:41;;;;;;;3.57;3.00;;;21.70;58.70;;;;;;5077178;28;20929;-82
2024/03/11 06:14:10;;;;;;;4.07;3.67;;;21.60;58.60;;;;;;5076865;28;20433;-82
2024/03/11 06:16:37;;;;;;;3.90;3.50;;;21.60;58.60;;;;;;5076986;28;20942;-82
2024/03/11 06:19:06;;;;;;;4.10;3.70;;;21.60;58.70;;;;;;5076975;28;20440;-83
2024/03/11 06:21:35;;;;;;;3.70;3.40;;;21.60;58.70;;;;;;5076870;28;20502;-82
2024/03/11 06:24:02;;;;;;;4.20;3.80;;;21.60;58.60;;;;;;5076452;28;20484;-82
2024/03/11 06:26:31;;;;;;;3.90;3.60;;;21.60;58.60;;;;;;5076650;28;20440;-82
2024/03/11 06:29:00;;;;;;;3.60;3.30;;;21.60;58.60;;;;;;5076665;28;20441;-84
2024/03/11 06:31:27;;;;;;;4.23;3.80;;;21.70;58.70;;;;;;5076549;28;20519;-82
2024/03/11 06:33:55;;;;;;;3.30;3.00;;;21.70;58.70;;;;;;5076394;28;20489;-82
2024/03/11 06:36:22;;;;;;;4.00;3.70;;;21.60;58.70;;;;;;5076491;28;20497;-82
2024/03/11 06:38:50;;;;;;;3.97;3.60;;;21.60;58.70;;;;;;5076234;28;20464;-82
2024/03/11 06:41:17;;;;;;;9.13;8.27;;;21.60;58.70;;;;;;5076242;28;20446;-82
2024/03/11 06:43:46;;;;;;;8.20;6.30;;;21.60;58.60;;;;;;5075970;28;20541;-82
2024/03/11 06:46:13;;;;;;;5.50;4.90;;;21.60;58.70;;;;;;5073923;28;20444;-83
2024/03/11 06:48:40;;;;;;;4.63;4.23;;;21.60;58.80;;;;;;5075167;28;20432;-82
2024/03/11 06:51:10;;;;;;;7.33;3.97;;;21.60;58.70;;;;;;5074778;28;20436;-82
2024/03/11 06:53:38;;;;;;;4.40;4.00;;;21.60;58.70;;;;;;5075555;28;20448;-82
2024/03/11 06:56:06;;;;;;;4.43;3.37;;;21.60;58.80;;;;;;5075559;28;20436;-82
2024/03/11 06:58:33;;;;;;;5.00;4.50;;;21.60;58.80;;;;;;5076388;28;20764;-81
2024/03/11 07:01:02;;;;;;;4.03;3.63;;;21.60;58.80;;;;;;5080122;28;20443;-82
2024/03/11 07:03:30;;;;;;;4.60;4.10;;;21.60;59.00;;;;;;5097124;28;20514;-82
2024/03/11 07:05:58;;;;;;;4.13;3.77;;;21.60;59.00;;;;;;5086366;28;20474;-87
2024/03/11 07:08:25;;;;;;;7.63;4.23;;;21.60;59.00;;;;;;5086569;28;20827;-81
2024/03/11 07:10:52;;;;;;;8.13;3.37;;;21.60;59.10;;;;;;5076074;28;20433;-81
2024/03/11 07:13:19;;;;;;;4.20;3.90;;;21.60;59.10;;;;;;5076093;28;20795;-81
2024/03/11 07:15:46;;;;;;;4.73;3.97;;;21.60;59.10;;;;;;5075711;28;20436;-81
2024/03/11 07:18:16;;;;;;;4.67;4.10;;;21.60;59.20;;;;;;5075420;28;20436;-81
2024/03/11 07:20:43;;;;;;;4.30;3.90;;;21.60;59.20;;;;;;5075601;28;20534;-81
2024/03/11 07:23:10;;;;;;;4.37;3.97;;;21.60;59.20;;;;;;5075444;28;20484;-82
2024/03/11 07:25:38;;;;;;;5.00;4.23;;;21.60;59.10;;;;;;5082650;28;20500;-79
2024/03/11 07:28:05;;;;;;;4.13;3.73;;;21.60;59.30;;;;;;5091653;28;20436;-80
2024/03/11 07:30:32;;;;;;;4.23;3.90;;;21.60;59.30;;;;;;5091138;28;20853;-82
2024/03/11 07:33:06;;;;;;;4.63;4.23;;;21.70;59.40;;;;;;5075715;28;20436;-86
2024/03/11 07:35:36;;;;;;;5.10;4.43;;;21.60;59.40;;;;;;5075890;28;20437;-81
2024/03/11 07:38:05;;;;;;;13.33;10.60;;;21.60;59.40;;;;;;5074648;28;20494;-81
2024/03/11 07:40:31;;;;;;;8.30;6.40;;;21.60;59.50;;;;;;5074665;28;20444;-82
2024/03/11 07:42:58;;;;;;;5.83;5.23;;;21.70;59.60;;;;;;5074662;28;21006;-81
2024/03/11 07:45:25;;;;;;;5.70;5.10;;;21.60;59.60;;;;;;5074612;28;20479;-84
2024/03/11 07:47:54;;;;;;;4.37;3.97;;;21.60;59.50;;;;;;5074491;28;20448;-82
2024/03/11 07:50:21;;;;;;;5.40;4.70;;;21.60;59.40;;;;;;5074287;28;20456;-83
2024/03/11 07:52:50;;;;;;;5.60;4.43;;;21.60;59.50;;;;;;5074208;28;20494;-83
2024/03/11 07:55:17;;;;;;;5.20;4.70;;;21.60;59.50;;;;;;5074815;28;20829;-88
2024/03/11 07:57:45;;;;;;;7.90;4.30;;;21.60;59.50;;;;;;5074365;28;20523;-83
2024/03/11 08:00:17;;;;;;;6.07;4.63;;;21.60;59.50;;;;;;5074350;28;20517;-82
2024/03/11 08:02:44;;;;;;;5.67;4.60;;;21.60;59.50;;;;;;5074742;28;20931;-82
2024/03/11 08:05:13;;;;;;;5.00;4.57;;;21.60;59.60;;;;;;5075094;28;20438;-87
2024/03/11 08:07:40;;;;;;;4.23;3.83;;;21.60;59.40;;;;;;5093217;28;20458;-83
2024/03/11 08:10:12;;;;;;;5.50;4.07;;;21.60;59.40;;;;;;5095169;28;20427;-82
2024/03/11 08:12:39;;;;;;;7.20;5.23;;;21.60;59.70;;;;;;5095215;28;20427;-84
2024/03/11 08:15:10;;;;;;;5.70;4.60;;;21.60;59.60;;;;;;5094935;28;20447;-84
2024/03/11 08:17:37;;;;;;;5.07;4.53;;;21.60;59.40;;;;;;5097568;28;20442;-86
2024/03/11 08:20:08;;;;;;;5.93;4.77;;;21.60;59.50;;;;;;5096804;28;20439;-86
2024/03/11 08:22:37;;;;;;;5.70;5.00;;;21.60;59.50;;;;;;5096622;28;20809;-87
2024/03/11 08:25:04;;;;;;;5.13;4.63;;;21.60;59.60;;;;;;5095645;28;20839;-82
2024/03/11 08:27:33;;;;;;;5.27;4.77;;;21.60;59.60;;;;;;5095884;28;20443;-82
2024/03/11 08:30:00;;;;;;;6.03;5.20;;;21.60;59.70;;;;;;5094878;28;20467;-83
2024/03/11 08:32:27;;;;;;;7.00;5.63;;;21.60;59.70;;;;;;5095501;28;20441;-83
2024/03/11 08:34:55;;;;;;;7.83;5.73;;;21.60;59.80;;;;;;5095034;28;20471;-83
2024/03/11 08:37:21;;;;;;;10.30;5.87;;;21.60;59.70;;;;;;5095292;28;20451;-83
2024/03/11 08:39:48;;;;;;;9.00;6.50;;;21.60;60.20;;;;;;5095509;28;20522;-83
2024/03/11 08:42:15;;;;;;;7.00;6.30;;;21.60;61.10;;;;;;5095306;28;20930;-83
2024/03/11 08:44:44;;;;;;;9.33;6.50;;;21.60;61.20;;;;;;5095281;28;20905;-82
2024/03/11 08:47:12;;;;;;;8.30;6.70;;;21.60;61.10;;;;;;5095421;28;20842;-83
2024/03/11 08:49:40;;;;;;;9.00;6.20;;;21.60;61.40;;;;;;5095173;28;20500;-82
2024/03/11 08:52:07;;;;;;;9.97;6.50;;;21.60;61.70;;;;;;5095242;28;20523;-82
2024/03/11 08:54:35;;;;;;;14.30;8.57;;;21.60;61.90;;;;;;5095271;28;20506;-82
2024/03/11 08:57:02;;;;;;;19.03;9.47;;;21.60;61.80;;;;;;5092324;28;20520;-82
2024/03/11 08:59:30;;;;;;;32.73;11.90;;;21.60;62.00;;;;;;5095379;28;20454;-82
2024/03/11 09:01:59;;;;;;;30.57;10.83;;;21.60;62.10;;;;;;5095064;28;20510;-82
2024/03/11 09:04:26;;;;;;;26.73;12.20;;;21.60;61.90;;;;;;5094986;28;20483;-83
2024/03/11 09:06:54;;;;;;;24.97;11.63;;;21.60;62.30;;;;;;5094795;28;20478;-83
2024/03/11 09:09:24;;;;;;;18.93;9.70;;;21.60;62.50;;;;;;5097929;28;20460;-80
2024/03/11 09:11:56;;;;;;;27.17;10.87;;;21.60;62.70;;;;;;5097585;28;20431;-82
2024/03/11 09:14:26;;;;;;;17.33;10.47;;;21.60;63.00;;;;;;5096541;28;20444;-83
2024/03/11 09:16:53;;;;;;;16.10;8.97;;;21.60;63.20;;;;;;5097273;28;20439;-86
2024/03/11 09:19:23;;;;;;;15.70;8.77;;;21.60;62.30;;;;;;5094337;28;20435;-81
2024/03/11 09:21:50;;;;;;;28.87;9.13;;;21.60;62.90;;;;;;5095046;28;20603;-83
2024/03/11 09:24:19;;;;;;;23.50;9.17;;;21.60;62.80;;;;;;5094100;28;21023;-83
2024/03/11 09:26:49;;;;;;;14.33;8.80;;;21.60;63.10;;;;;;5094523;28;20435;-83
2024/03/11 09:29:16;;;;;;;11.00;7.67;;;21.60;63.40;;;;;;5095023;28;20432;-84
2024/03/11 09:31:45;;;;;;;19.93;8.90;;;21.60;63.10;;;;;;5094443;28;20462;-83
2024/03/11 09:34:12;;;;;;;17.60;8.37;;;21.70;63.30;;;;;;5094859;28;20443;-82
2024/03/11 09:36:41;;;;;;;14.20;8.00;;;21.60;63.10;;;;;;5094564;28;20431;-84
2024/03/11 09:39:11;;;;;;;12.70;7.63;;;21.60;63.00;;;;;;5082850;28;20476;-80
2024/03/11 09:41:41;;;;;;;12.87;6.97;;;21.70;63.10;;;;;;5074306;28;20450;-88
2024/03/11 09:44:13;;;;;;;17.70;8.23;;;21.60;62.80;;;;;;5074187;28;20488;-82
2024/03/11 09:46:42;;;;;;;13.80;7.73;;;21.60;63.10;;;;;;5076780;28;20447;-83
2024/03/11 09:49:10;;;;;;;11.53;6.67;;;21.60;62.80;;;;;;5066885;28;20467;-83
2024/03/11 09:51:38;;;;;;;14.30;7.27;;;21.60;62.80;;;;;;5075606;28;20993;-83
2024/03/11 09:54:10;;;;;;;14.03;8.10;;;21.60;62.70;;;;;;5074948;28;20441;-86
2024/03/11 09:56:37;;;;;;;12.43;6.97;;;21.60;62.60;;;;;;5074780;28;20441;-83
2024/03/11 09:59:09;;;;;;;14.80;8.43;;;21.60;62.70;;;;;;5073100;28;20437;-84
2024/03/11 10:01:42;;;;;;;12.60;7.40;;;21.60;62.60;;;;;;5073015;28;20433;-84
2024/03/11 10:04:09;;;;;;;12.97;8.00;;;21.60;62.50;;;;;;5072913;28;20484;-82
2024/03/11 10:06:39;;;;;;;14.77;7.27;;;21.60;62.50;;;;;;5072341;28;20436;-84
2024/03/11 10:09:10;;;;;;;9.50;6.73;;;21.60;62.40;;;;;;5073048;28;20452;-84
2024/03/11 10:11:37;;;;;;;18.00;6.80;;;21.60;62.40;;;;;;5072641;28;20440;-84
2024/03/11 10:14:20;;;;;;;14.80;6.87;;;21.60;62.30;;;;;;5072846;28;20444;-85
2024/03/11 10:16:48;;;;;;;15.70;7.07;;;21.60;62.30;;;;;;5070400;28;20793;-85
2024/03/11 10:19:14;;;;;;;14.87;7.40;;;21.60;62.30;;;;;;5072148;28;20451;-90
2024/03/11 10:21:42;;;;;;;14.17;6.60;;;21.60;62.30;;;;;;5075514;28;20894;-92
2024/03/11 10:24:14;;;;;;;10.43;6.13;;;21.60;62.30;;;;;;5075947;28;20478;-86
2024/03/11 10:26:41;;;;;;;10.90;7.50;;;21.60;62.20;;;;;;5075189;28;20811;-91
2024/03/11 10:29:11;;;;;;;14.17;6.33;;;21.60;62.10;;;;;;5073782;28;20452;-89
2024/03/11 10:31:41;;;;;;;9.23;6.00;;;21.60;62.10;;;;;;5072818;28;20443;-83
2024/03/11 10:34:12;;;;;;;14.80;7.90;;;21.60;62.10;;;;;;5072759;28;20805;-86
2024/03/11 10:36:40;;;;;;;11.07;6.90;;;21.60;62.10;;;;;;5073295;28;20790;-84
2024/03/11 10:39:09;;;;;;;10.30;6.10;;;21.60;62.10;;;;;;5074245;28;20465;-90
2024/03/11 10:41:42;;;;;;;10.40;6.47;;;21.60;62.10;;;;;;5076091;28;20440;-92
2024/03/11 10:44:15;;;;;;;11.53;6.50;;;21.60;62.00;;;;;;5077731;28;20495;-83
2024/03/11 10:46:42;;;;;;;12.53;6.77;;;21.60;62.10;;;;;;5097192;28;20432;-86
2024/03/11 10:49:12;;;;;;;12.13;6.73;;;21.70;62.10;;;;;;5097600;28;20428;-86
2024/03/11 10:51:44;;;;;;;8.67;6.43;;;21.70;62.10;;;;;;5075445;28;20429;-85
2024/03/11 10:54:15;;;;;;;9.97;6.23;;;21.60;61.90;;;;;;5076020;28;20436;-89
2024/03/11 10:56:44;;;;;;;9.93;6.60;;;21.60;61.90;;;;;;5076015;28;20811;-89
2024/03/11 10:59:15;;;;;;;10.50;6.13;;;21.60;61.90;;;;;;5076421;28;20445;-89
2024/03/11 11:01:47;;;;;;;8.60;5.80;;;21.60;61.90;;;;;;5074727;28;20444;-88
2024/03/11 11:04:19;;;;;;;8.73;6.80;;;21.50;61.70;;;;;;5074728;28;20529;-80
2024/03/11 11:06:47;;;;;;;7.33;5.70;;;21.60;61.80;;;;;;5075314;28;20770;-83
2024/03/11 11:09:15;;;;;;;9.90;5.73;;;21.60;61.80;;;;;;5075224;28;20457;-89
2024/03/11 11:11:49;;;;;;;7.63;6.37;;;21.60;61.80;;;;;;5076047;28;20447;-90
2024/03/11 11:14:18;;;;;;;9.00;6.33;;;21.60;61.80;;;;;;5075969;28;21002;-90
2024/03/11 11:16:45;;;;;;;8.00;5.30;;;21.60;61.70;;;;;;5076524;28;20444;-87
2024/03/11 11:19:14;;;;;;;11.67;6.37;;;21.60;61.70;;;;;;5076174;28;20527;-92
2024/03/11 11:21:43;;;;;;;12.47;6.73;;;21.60;61.70;;;;;;5072565;28;20424;-88
2024/03/11 11:24:28;;;;;;;9.10;6.33;;;21.60;61.60;;;;;;5048455;28;20978;-83
2024/03/11 11:26:58;;;;;;;8.53;5.90;;;21.60;61.60;;;;;;5077274;28;20450;-92
2024/03/11 11:29:27;;;;;;;9.53;5.90;;;21.60;61.60;;;;;;5094959;28;20447;-86
2024/03/11 11:32:02;;;;;;;7.53;5.57;;;21.60;61.60;;;;;;5079615;28;20551;-90
2024/03/11 11:34:48;;;;;;;8.73;5.73;;;21.70;61.70;;;;;;5075302;28;20844;-89
2024/03/11 11:37:32;;;;;;;7.97;5.90;;;21.60;61.60;;;;;;5076094;28;20543;-92
2024/03/11 11:40:33;;;;;;;7.70;6.03;;;21.60;61.60;;;;;;5070686;28;20466;-91
2024/03/11 11:43:04;;;;;;;7.13;5.40;;;21.60;61.60;;;;;;5074605;28;20436;-90
2024/03/11 11:45:54;;;;;;;9.57;5.90;;;21.60;61.60;;;;;;5055252;28;20563;-87
2024/03/11 11:48:25;;;;;;;7.80;5.30;;;21.60;61.50;;;;;;5068447;28;20965;-88
2024/03/11 11:50:57;;;;;;;8.73;5.73;;;21.60;61.60;;;;;;5076094;28;20452;-88
2024/03/11 11:53:29;;;;;;;9.00;5.77;;;21.60;61.60;;;;;;5075279;28;20566;-88
2024/03/11 11:55:56;;;;;;;8.83;5.70;;;21.60;61.60;;;;;;5074746;28;20790;-87
2024/03/11 11:58:25;;;;;;;7.53;5.80;;;21.60;61.60;;;;;;5074649;28;20863;-86
2024/03/11 12:01:00;;;;;;;6.37;5.10;;;21.60;61.40;;;;;;5074542;28;20810;-86
2024/03/11 12:03:31;;;;;;;7.93;5.60;;;21.60;61.50;;;;;;5074495;28;20860;-84
2024/03/11 12:06:03;;;;;;;8.40;5.33;;;21.60;61.50;;;;;;5074076;28;20495;-81
2024/03/11 12:08:31;;;;;;;5.60;5.00;;;21.60;61.50;;;;;;5073837;28;20873;-86
2024/03/11 12:11:10;;;;;;;6.13;4.73;;;21.60;61.50;;;;;;5073974;28;20468;-85
2024/03/11 12:13:40;;;;;;;6.30;4.90;;;21.60;61.50;;;;;;5073205;28;20517;-81
2024/03/11 12:16:11;;;;;;;9.13;4.93;;;21.60;61.30;;;;;;5061185;28;20441;-83
2024/03/11 12:18:41;;;;;;;8.27;4.80;;;21.50;61.00;;;;;;5054252;28;20417;-83
2024/03/11 12:21:11;;;;;;;9.50;5.40;;;21.50;61.30;;;;;;5053372;28;20437;-82
2024/03/11 12:23:38;;;;;;;8.73;5.53;;;21.50;61.40;;;;;;5057839;28;20451;-88
2024/03/11 12:26:09;;;;;;;7.60;5.63;;;21.60;61.40;;;;;;5073644;28;20495;-89
2024/03/11 12:28:43;;;;;;;5.97;5.00;;;21.50;61.10;;;;;;5072641;28;20494;-83
2024/03/11 12:31:15;;;;;;;5.90;4.73;;;21.50;61.20;;;;;;5074357;28;20444;-95
2024/03/11 12:33:44;;;;;;;7.70;4.77;;;21.50;61.20;;;;;;5075724;28;20436;-87
2024/03/11 12:36:13;;;;;;;6.83;4.90;;;21.50;61.10;;;;;;5074599;28;20490;-92
2024/03/11 12:38:42;;;;;;;6.20;4.50;;;21.50;61.30;;;;;;5075992;28;20457;-87
2024/03/11 12:41:09;;;;;;;7.17;5.30;;;21.50;61.40;;;;;;5064157;28;20448;-95
2024/03/11 12:43:41;;;;;;;7.20;5.20;;;21.50;61.10;;;;;;5075852;28;20444;-87
2024/03/11 12:48:54;;;;;;;8.63;5.57;;;21.50;61.40;;;;;;5051590;28;20947;-80
2024/03/11 12:51:21;;;;;;;6.73;4.90;;;21.50;61.40;;;;;;5051617;28;20781;-90
2024/03/11 12:53:48;;;;;;;9.47;4.80;;;21.50;61.30;;;;;;5054584;28;20553;-94
2024/03/11 12:56:17;;;;;;;6.70;5.30;;;21.60;61.60;;;;;;5055692;28;20452;-93